sensor_id;sensor_type;location;lat;lon;timestamp;P1;durP1;ratioP1;P2;durP2;ratioP2
35276;SDS011;21401;50.878;8.050;2022-08-19T00:01:43;32.15;;;25.17;;
35276;SDS011;21401;50.878;8.050;2022-08-19T00:04:14;31.40;;;24.92;;
35276;SDS011;21401;50.878;8.050;2022-08-19T00:06:44;32.58;;;25.25;;
35276;SDS011;21401;50.878;8.050;2022-08-19T00:09:13;33.28;;;25.52;;
35276;SDS011;21401;50.878;8.050;2022-08-19T00:11:41;30.45;;;25.02;;
35276;SDS011;21401;50.878;8.050;2022-08-19T00:14:08;33.15;;;26.25;;
35276;SDS011;21401;50.878;8.050;2022-08-19T00:16:39;33.38;;;24.33;;
35276;SDS011;21401;50.878;8.050;2022-08-19T00:19:08;32.20;;;25.83;;
35276;SDS011;21401;50.878;8.050;2022-08-19T00:21:34;34.03;;;26.50;;
35276;SDS011;21401;50.878;8.050;2022-08-19T00:24:04;36.42;;;27.10;;
35276;SDS011;21401;50.878;8.050;2022-08-19T00:26:31;35.47;;;26.75;;
35276;SDS011;21401;50.878;8.050;2022-08-19T00:28:58;34.78;;;27.52;;
35276;SDS011;21401;50.878;8.050;2022-08-19T00:31:25;31.98;;;25.52;;
35276;SDS011;21401;50.878;8.050;2022-08-19T00:33:52;33.25;;;27.15;;
35276;SDS011;21401;50.878;8.050;2022-08-19T00:36:19;33.75;;;26.17;;
35276;SDS011;21401;50.878;8.050;2022-08-19T00:38:45;32.53;;;25.48;;
35276;SDS011;21401;50.878;8.050;2022-08-19T00:41:17;35.90;;;26.65;;
35276;SDS011;21401;50.878;8.050;2022-08-19T00:46:26;35.25;;;25.83;;
35276;SDS011;21401;50.878;8.050;2022-08-19T00:48:54;31.95;;;25.95;;
35276;SDS011;21401;50.878;8.050;2022-08-19T00:51:22;31.13;;;24.08;;
35276;SDS011;21401;50.878;8.050;2022-08-19T00:53:51;34.08;;;25.50;;
35276;SDS011;21401;50.878;8.050;2022-08-19T00:56:19;34.50;;;26.60;;
35276;SDS011;21401;50.878;8.050;2022-08-19T00:58:45;32.45;;;25.77;;
35276;SDS011;21401;50.878;8.050;2022-08-19T01:01:11;33.60;;;26.83;;
35276;SDS011;21401;50.878;8.050;2022-08-19T01:03:38;34.42;;;26.30;;
35276;SDS011;21401;50.878;8.050;2022-08-19T01:06:04;34.05;;;26.45;;
35276;SDS011;21401;50.878;8.050;2022-08-19T01:08:30;34.00;;;26.77;;
35276;SDS011;21401;50.878;8.050;2022-08-19T01:10:56;41.20;;;27.05;;
35276;SDS011;21401;50.878;8.050;2022-08-19T01:13:25;35.78;;;26.55;;
35276;SDS011;21401;50.878;8.050;2022-08-19T01:15:59;39.38;;;27.92;;
35276;SDS011;21401;50.878;8.050;2022-08-19T01:18:29;40.97;;;28.92;;
35276;SDS011;21401;50.878;8.050;2022-08-19T01:20:58;40.35;;;27.85;;
35276;SDS011;21401;50.878;8.050;2022-08-19T01:23:27;36.53;;;26.42;;
35276;SDS011;21401;50.878;8.050;2022-08-19T01:26:07;36.15;;;26.88;;
35276;SDS011;21401;50.878;8.050;2022-08-19T01:28:41;39.88;;;27.83;;
35276;SDS011;21401;50.878;8.050;2022-08-19T01:31:15;40.50;;;27.67;;
35276;SDS011;21401;50.878;8.050;2022-08-19T01:33:46;36.20;;;26.83;;
35276;SDS011;21401;50.878;8.050;2022-08-19T01:36:13;44.13;;;28.15;;
35276;SDS011;21401;50.878;8.050;2022-08-19T01:38:47;44.08;;;29.33;;
35276;SDS011;21401;50.878;8.050;2022-08-19T01:41:14;41.10;;;30.40;;
35276;SDS011;21401;50.878;8.050;2022-08-19T01:43:43;55.55;;;31.20;;
35276;SDS011;21401;50.878;8.050;2022-08-19T01:46:09;68.75;;;35.88;;
35276;SDS011;21401;50.878;8.050;2022-08-19T01:48:39;68.57;;;37.50;;
35276;SDS011;21401;50.878;8.050;2022-08-19T01:51:07;72.07;;;36.20;;
35276;SDS011;21401;50.878;8.050;2022-08-19T01:53:34;66.63;;;34.28;;
35276;SDS011;21401;50.878;8.050;2022-08-19T01:56:00;63.83;;;36.08;;
35276;SDS011;21401;50.878;8.050;2022-08-19T01:58:27;66.72;;;36.38;;
35276;SDS011;21401;50.878;8.050;2022-08-19T02:00:56;61.33;;;34.42;;
35276;SDS011;21401;50.878;8.050;2022-08-19T02:03:23;53.00;;;31.45;;
35276;SDS011;21401;50.878;8.050;2022-08-19T02:05:59;53.70;;;30.80;;
35276;SDS011;21401;50.878;8.050;2022-08-19T02:08:36;55.50;;;31.00;;
35276;SDS011;21401;50.878;8.050;2022-08-19T02:11:06;58.50;;;33.88;;
35276;SDS011;21401;50.878;8.050;2022-08-19T02:13:41;58.50;;;35.03;;
35276;SDS011;21401;50.878;8.050;2022-08-19T02:16:06;61.15;;;34.80;;
35276;SDS011;21401;50.878;8.050;2022-08-19T02:18:32;63.20;;;34.95;;
35276;SDS011;21401;50.878;8.050;2022-08-19T02:20:58;67.13;;;36.38;;
35276;SDS011;21401;50.878;8.050;2022-08-19T02:23:24;54.63;;;35.13;;
35276;SDS011;21401;50.878;8.050;2022-08-19T02:25:51;58.80;;;33.40;;
35276;SDS011;21401;50.878;8.050;2022-08-19T02:28:19;57.20;;;32.88;;
35276;SDS011;21401;50.878;8.050;2022-08-19T02:30:45;55.70;;;33.50;;
35276;SDS011;21401;50.878;8.050;2022-08-19T02:33:13;53.08;;;33.65;;
35276;SDS011;21401;50.878;8.050;2022-08-19T02:35:44;51.03;;;31.50;;
35276;SDS011;21401;50.878;8.050;2022-08-19T02:38:11;46.60;;;30.95;;
35276;SDS011;21401;50.878;8.050;2022-08-19T02:41:05;41.42;;;28.48;;
35276;SDS011;21401;50.878;8.050;2022-08-19T02:43:36;50.35;;;30.45;;
35276;SDS011;21401;50.878;8.050;2022-08-19T02:46:11;52.00;;;31.85;;
35276;SDS011;21401;50.878;8.050;2022-08-19T02:48:38;45.17;;;30.55;;
35276;SDS011;21401;50.878;8.050;2022-08-19T02:51:06;52.03;;;31.67;;
35276;SDS011;21401;50.878;8.050;2022-08-19T02:53:31;49.95;;;31.70;;
35276;SDS011;21401;50.878;8.050;2022-08-19T02:55:57;52.13;;;31.08;;
35276;SDS011;21401;50.878;8.050;2022-08-19T02:58:23;50.70;;;30.58;;
35276;SDS011;21401;50.878;8.050;2022-08-19T03:00:50;47.80;;;30.77;;
35276;SDS011;21401;50.878;8.050;2022-08-19T03:03:18;43.80;;;30.45;;
35276;SDS011;21401;50.878;8.050;2022-08-19T03:05:46;43.97;;;29.00;;
35276;SDS011;21401;50.878;8.050;2022-08-19T03:08:12;43.50;;;28.20;;
35276;SDS011;21401;50.878;8.050;2022-08-19T03:10:40;43.33;;;29.40;;
35276;SDS011;21401;50.878;8.050;2022-08-19T03:13:08;45.53;;;29.77;;
35276;SDS011;21401;50.878;8.050;2022-08-19T03:15:38;47.22;;;30.90;;
35276;SDS011;21401;50.878;8.050;2022-08-19T03:18:07;48.35;;;30.50;;
35276;SDS011;21401;50.878;8.050;2022-08-19T03:20:32;45.90;;;29.05;;
35276;SDS011;21401;50.878;8.050;2022-08-19T03:22:58;40.95;;;28.35;;
35276;SDS011;21401;50.878;8.050;2022-08-19T03:25:23;46.25;;;31.08;;
35276;SDS011;21401;50.878;8.050;2022-08-19T03:27:49;44.40;;;29.55;;
35276;SDS011;21401;50.878;8.050;2022-08-19T03:30:15;39.95;;;29.83;;
35276;SDS011;21401;50.878;8.050;2022-08-19T03:32:42;43.88;;;29.27;;
35276;SDS011;21401;50.878;8.050;2022-08-19T03:35:08;39.70;;;29.40;;
35276;SDS011;21401;50.878;8.050;2022-08-19T03:37:34;46.65;;;30.90;;
35276;SDS011;21401;50.878;8.050;2022-08-19T03:39:59;49.45;;;30.98;;
35276;SDS011;21401;50.878;8.050;2022-08-19T03:42:28;45.70;;;31.77;;
35276;SDS011;21401;50.878;8.050;2022-08-19T03:44:54;42.35;;;30.73;;
35276;SDS011;21401;50.878;8.050;2022-08-19T03:47:23;47.03;;;30.63;;
35276;SDS011;21401;50.878;8.050;2022-08-19T03:49:51;42.72;;;29.60;;
35276;SDS011;21401;50.878;8.050;2022-08-19T03:52:22;41.78;;;28.73;;
35276;SDS011;21401;50.878;8.050;2022-08-19T03:54:49;48.78;;;30.83;;
35276;SDS011;21401;50.878;8.050;2022-08-19T03:57:14;51.08;;;30.38;;
35276;SDS011;21401;50.878;8.050;2022-08-19T03:59:47;47.78;;;30.90;;
35276;SDS011;21401;50.878;8.050;2022-08-19T04:02:13;49.22;;;30.83;;
35276;SDS011;21401;50.878;8.050;2022-08-19T04:04:42;40.90;;;28.70;;
35276;SDS011;21401;50.878;8.050;2022-08-19T04:07:08;40.33;;;28.65;;
35276;SDS011;21401;50.878;8.050;2022-08-19T04:09:41;45.25;;;30.40;;
35276;SDS011;21401;50.878;8.050;2022-08-19T04:12:07;44.22;;;29.85;;
35276;SDS011;21401;50.878;8.050;2022-08-19T04:14:33;48.40;;;31.30;;
35276;SDS011;21401;50.878;8.050;2022-08-19T04:16:59;49.20;;;31.77;;
35276;SDS011;21401;50.878;8.050;2022-08-19T04:19:29;47.85;;;31.35;;
35276;SDS011;21401;50.878;8.050;2022-08-19T04:21:56;44.58;;;30.42;;
35276;SDS011;21401;50.878;8.050;2022-08-19T04:24:24;52.75;;;32.25;;
35276;SDS011;21401;50.878;8.050;2022-08-19T04:26:52;46.50;;;31.17;;
35276;SDS011;21401;50.878;8.050;2022-08-19T04:29:22;42.30;;;28.40;;
35276;SDS011;21401;50.878;8.050;2022-08-19T04:31:55;45.58;;;29.85;;
35276;SDS011;21401;50.878;8.050;2022-08-19T04:34:22;43.75;;;30.42;;
35276;SDS011;21401;50.878;8.050;2022-08-19T04:36:50;44.72;;;29.05;;
35276;SDS011;21401;50.878;8.050;2022-08-19T04:39:19;46.88;;;30.95;;
35276;SDS011;21401;50.878;8.050;2022-08-19T04:41:46;46.08;;;30.27;;
35276;SDS011;21401;50.878;8.050;2022-08-19T04:44:32;48.40;;;30.88;;
35276;SDS011;21401;50.878;8.050;2022-08-19T04:46:59;47.88;;;32.33;;
35276;SDS011;21401;50.878;8.050;2022-08-19T04:49:27;49.65;;;31.65;;
35276;SDS011;21401;50.878;8.050;2022-08-19T04:51:53;38.97;;;27.75;;
35276;SDS011;21401;50.878;8.050;2022-08-19T04:54:19;44.55;;;29.70;;
35276;SDS011;21401;50.878;8.050;2022-08-19T04:56:47;47.00;;;30.83;;
35276;SDS011;21401;50.878;8.050;2022-08-19T04:59:15;46.17;;;32.17;;
35276;SDS011;21401;50.878;8.050;2022-08-19T05:01:42;46.85;;;30.67;;
35276;SDS011;21401;50.878;8.050;2022-08-19T05:04:08;47.20;;;32.00;;
35276;SDS011;21401;50.878;8.050;2022-08-19T05:06:34;48.00;;;33.30;;
35276;SDS011;21401;50.878;8.050;2022-08-19T05:09:01;53.08;;;32.65;;
35276;SDS011;21401;50.878;8.050;2022-08-19T05:11:29;53.10;;;34.13;;
35276;SDS011;21401;50.878;8.050;2022-08-19T05:13:57;48.35;;;32.42;;
35276;SDS011;21401;50.878;8.050;2022-08-19T05:16:23;50.70;;;33.50;;
35276;SDS011;21401;50.878;8.050;2022-08-19T05:18:51;48.20;;;30.70;;
35276;SDS011;21401;50.878;8.050;2022-08-19T05:21:38;51.40;;;32.08;;
35276;SDS011;21401;50.878;8.050;2022-08-19T05:24:26;47.20;;;31.85;;
35276;SDS011;21401;50.878;8.050;2022-08-19T05:26:53;44.45;;;31.02;;
35276;SDS011;21401;50.878;8.050;2022-08-19T05:29:21;51.72;;;31.50;;
35276;SDS011;21401;50.878;8.050;2022-08-19T05:31:54;46.65;;;32.78;;
35276;SDS011;21401;50.878;8.050;2022-08-19T05:34:21;45.28;;;31.27;;
35276;SDS011;21401;50.878;8.050;2022-08-19T05:36:51;44.22;;;29.55;;
35276;SDS011;21401;50.878;8.050;2022-08-19T05:39:21;42.22;;;29.50;;
35276;SDS011;21401;50.878;8.050;2022-08-19T05:41:48;46.17;;;31.48;;
35276;SDS011;21401;50.878;8.050;2022-08-19T05:44:19;44.85;;;29.25;;
35276;SDS011;21401;50.878;8.050;2022-08-19T05:46:49;45.15;;;30.40;;
35276;SDS011;21401;50.878;8.050;2022-08-19T05:49:21;43.42;;;29.95;;
35276;SDS011;21401;50.878;8.050;2022-08-19T05:51:51;42.97;;;29.48;;
35276;SDS011;21401;50.878;8.050;2022-08-19T05:54:17;42.53;;;28.98;;
35276;SDS011;21401;50.878;8.050;2022-08-19T05:56:50;48.53;;;30.38;;
35276;SDS011;21401;50.878;8.050;2022-08-19T05:59:17;41.28;;;28.77;;
35276;SDS011;21401;50.878;8.050;2022-08-19T06:01:46;44.63;;;31.17;;
35276;SDS011;21401;50.878;8.050;2022-08-19T06:04:15;42.55;;;30.63;;
35276;SDS011;21401;50.878;8.050;2022-08-19T06:06:43;41.70;;;29.17;;
35276;SDS011;21401;50.878;8.050;2022-08-19T06:09:09;46.30;;;30.27;;
35276;SDS011;21401;50.878;8.050;2022-08-19T06:14:10;44.83;;;30.38;;
35276;SDS011;21401;50.878;8.050;2022-08-19T06:16:39;48.95;;;30.48;;
35276;SDS011;21401;50.878;8.050;2022-08-19T06:19:07;45.15;;;28.55;;
35276;SDS011;21401;50.878;8.050;2022-08-19T06:21:44;44.17;;;30.45;;
35276;SDS011;21401;50.878;8.050;2022-08-19T06:24:13;40.22;;;30.75;;
35276;SDS011;21401;50.878;8.050;2022-08-19T06:26:41;42.92;;;31.38;;
35276;SDS011;21401;50.878;8.050;2022-08-19T06:29:09;47.53;;;32.92;;
35276;SDS011;21401;50.878;8.050;2022-08-19T06:31:40;43.20;;;32.22;;
35276;SDS011;21401;50.878;8.050;2022-08-19T06:34:09;42.50;;;32.03;;
35276;SDS011;21401;50.878;8.050;2022-08-19T06:36:36;43.38;;;31.58;;
35276;SDS011;21401;50.878;8.050;2022-08-19T06:39:11;46.10;;;31.05;;
35276;SDS011;21401;50.878;8.050;2022-08-19T06:41:55;42.70;;;32.05;;
35276;SDS011;21401;50.878;8.050;2022-08-19T06:44:41;46.10;;;32.05;;
35276;SDS011;21401;50.878;8.050;2022-08-19T06:47:38;44.65;;;31.13;;
35276;SDS011;21401;50.878;8.050;2022-08-19T06:50:19;40.80;;;30.65;;
35276;SDS011;21401;50.878;8.050;2022-08-19T06:53:20;44.75;;;29.83;;
35276;SDS011;21401;50.878;8.050;2022-08-19T06:55:45;43.53;;;30.88;;
35276;SDS011;21401;50.878;8.050;2022-08-19T06:58:27;43.80;;;31.02;;
35276;SDS011;21401;50.878;8.050;2022-08-19T07:01:00;43.10;;;30.33;;
35276;SDS011;21401;50.878;8.050;2022-08-19T07:03:37;44.08;;;31.77;;
35276;SDS011;21401;50.878;8.050;2022-08-19T07:06:04;42.33;;;30.67;;
35276;SDS011;21401;50.878;8.050;2022-08-19T07:08:34;46.72;;;30.08;;
35276;SDS011;21401;50.878;8.050;2022-08-19T07:11:16;45.05;;;29.55;;
35276;SDS011;21401;50.878;8.050;2022-08-19T07:13:44;39.50;;;28.92;;
35276;SDS011;21401;50.878;8.050;2022-08-19T07:16:14;38.35;;;28.63;;
35276;SDS011;21401;50.878;8.050;2022-08-19T07:18:44;51.75;;;28.27;;
35276;SDS011;21401;50.878;8.050;2022-08-19T07:21:35;37.30;;;27.70;;
35276;SDS011;21401;50.878;8.050;2022-08-19T07:24:02;35.50;;;27.13;;
35276;SDS011;21401;50.878;8.050;2022-08-19T07:26:45;43.88;;;30.83;;
35276;SDS011;21401;50.878;8.050;2022-08-19T07:32:14;35.10;;;27.00;;
35276;SDS011;21401;50.878;8.050;2022-08-19T07:34:40;36.55;;;27.60;;
35276;SDS011;21401;50.878;8.050;2022-08-19T07:37:06;43.30;;;27.73;;
35276;SDS011;21401;50.878;8.050;2022-08-19T07:39:38;32.20;;;25.55;;
35276;SDS011;21401;50.878;8.050;2022-08-19T07:42:10;33.33;;;24.23;;
35276;SDS011;21401;50.878;8.050;2022-08-19T07:44:37;37.90;;;24.30;;
35276;SDS011;21401;50.878;8.050;2022-08-19T07:47:06;28.83;;;23.52;;
35276;SDS011;21401;50.878;8.050;2022-08-19T07:49:32;30.10;;;23.27;;
35276;SDS011;21401;50.878;8.050;2022-08-19T07:52:03;33.05;;;22.50;;
35276;SDS011;21401;50.878;8.050;2022-08-19T07:54:32;32.78;;;22.33;;
35276;SDS011;21401;50.878;8.050;2022-08-19T07:56:59;31.48;;;21.88;;
35276;SDS011;21401;50.878;8.050;2022-08-19T07:59:27;33.20;;;21.17;;
35276;SDS011;21401;50.878;8.050;2022-08-19T08:01:54;25.85;;;20.10;;
35276;SDS011;21401;50.878;8.050;2022-08-19T08:04:30;22.52;;;18.85;;
35276;SDS011;21401;50.878;8.050;2022-08-19T08:07:23;22.92;;;18.75;;
35276;SDS011;21401;50.878;8.050;2022-08-19T08:10:14;25.92;;;18.10;;
35276;SDS011;21401;50.878;8.050;2022-08-19T08:12:43;22.98;;;16.58;;
35276;SDS011;21401;50.878;8.050;2022-08-19T08:15:10;18.15;;;15.02;;
35276;SDS011;21401;50.878;8.050;2022-08-19T08:17:42;18.17;;;13.18;;
35276;SDS011;21401;50.878;8.050;2022-08-19T08:20:08;17.48;;;14.48;;
35276;SDS011;21401;50.878;8.050;2022-08-19T08:22:34;15.02;;;12.73;;
35276;SDS011;21401;50.878;8.050;2022-08-19T08:25:20;18.13;;;13.50;;
35276;SDS011;21401;50.878;8.050;2022-08-19T08:27:48;16.33;;;13.70;;
35276;SDS011;21401;50.878;8.050;2022-08-19T08:30:24;26.05;;;13.98;;
35276;SDS011;21401;50.878;8.050;2022-08-19T08:32:51;16.95;;;14.40;;
35276;SDS011;21401;50.878;8.050;2022-08-19T08:35:19;15.13;;;13.45;;
35276;SDS011;21401;50.878;8.050;2022-08-19T08:37:51;16.38;;;11.90;;
35276;SDS011;21401;50.878;8.050;2022-08-19T08:45:34;14.52;;;12.80;;
35276;SDS011;21401;50.878;8.050;2022-08-19T08:48:18;20.50;;;13.52;;
35276;SDS011;21401;50.878;8.050;2022-08-19T08:50:52;18.75;;;14.88;;
35276;SDS011;21401;50.878;8.050;2022-08-19T08:53:19;19.23;;;15.43;;
35276;SDS011;21401;50.878;8.050;2022-08-19T08:55:46;21.65;;;17.05;;
35276;SDS011;21401;50.878;8.050;2022-08-19T08:58:20;21.08;;;18.88;;
35276;SDS011;21401;50.878;8.050;2022-08-19T09:00:53;19.58;;;16.85;;
35276;SDS011;21401;50.878;8.050;2022-08-19T09:03:25;18.25;;;16.42;;
35276;SDS011;21401;50.878;8.050;2022-08-19T09:05:57;17.63;;;15.65;;
35276;SDS011;21401;50.878;8.050;2022-08-19T09:10:55;17.75;;;15.93;;
35276;SDS011;21401;50.878;8.050;2022-08-19T09:15:55;17.55;;;15.65;;
35276;SDS011;21401;50.878;8.050;2022-08-19T09:21:27;18.25;;;16.25;;
35276;SDS011;21401;50.878;8.050;2022-08-19T09:23:53;17.50;;;15.60;;
35276;SDS011;21401;50.878;8.050;2022-08-19T09:26:23;23.13;;;16.40;;
35276;SDS011;21401;50.878;8.050;2022-08-19T09:28:50;16.58;;;14.73;;
35276;SDS011;21401;50.878;8.050;2022-08-19T09:31:24;16.25;;;14.65;;
35276;SDS011;21401;50.878;8.050;2022-08-19T09:33:55;18.25;;;13.48;;
35276;SDS011;21401;50.878;8.050;2022-08-19T09:36:30;14.38;;;12.88;;
35276;SDS011;21401;50.878;8.050;2022-08-19T09:39:54;16.20;;;13.63;;
35276;SDS011;21401;50.878;8.050;2022-08-19T09:42:20;13.40;;;12.00;;
35276;SDS011;21401;50.878;8.050;2022-08-19T09:44:46;14.82;;;12.50;;
35276;SDS011;21401;50.878;8.050;2022-08-19T09:47:12;15.00;;;13.30;;
35276;SDS011;21401;50.878;8.050;2022-08-19T09:49:39;16.17;;;14.50;;
35276;SDS011;21401;50.878;8.050;2022-08-19T09:52:05;12.65;;;10.85;;
35276;SDS011;21401;50.878;8.050;2022-08-19T09:54:33;15.02;;;12.15;;
35276;SDS011;21401;50.878;8.050;2022-08-19T09:56:59;14.65;;;12.00;;
35276;SDS011;21401;50.878;8.050;2022-08-19T09:59:25;11.23;;;10.07;;
35276;SDS011;21401;50.878;8.050;2022-08-19T10:01:52;11.82;;;10.57;;
35276;SDS011;21401;50.878;8.050;2022-08-19T10:04:17;14.98;;;10.30;;
35276;SDS011;21401;50.878;8.050;2022-08-19T10:06:44;11.27;;;9.27;;
35276;SDS011;21401;50.878;8.050;2022-08-19T10:09:13;10.48;;;8.75;;
35276;SDS011;21401;50.878;8.050;2022-08-19T10:11:41;10.32;;;6.88;;
35276;SDS011;21401;50.878;8.050;2022-08-19T10:14:07;9.25;;;8.05;;
35276;SDS011;21401;50.878;8.050;2022-08-19T10:16:33;6.85;;;6.15;;
35276;SDS011;21401;50.878;8.050;2022-08-19T10:19:01;8.70;;;5.82;;
35276;SDS011;21401;50.878;8.050;2022-08-19T10:21:29;6.22;;;5.20;;
35276;SDS011;21401;50.878;8.050;2022-08-19T10:23:59;5.90;;;4.90;;
35276;SDS011;21401;50.878;8.050;2022-08-19T10:26:29;6.93;;;5.45;;
35276;SDS011;21401;50.878;8.050;2022-08-19T10:28:57;13.13;;;5.88;;
35276;SDS011;21401;50.878;8.050;2022-08-19T10:31:27;6.10;;;5.50;;
35276;SDS011;21401;50.878;8.050;2022-08-19T10:33:54;8.25;;;6.57;;
35276;SDS011;21401;50.878;8.050;2022-08-19T10:36:24;5.00;;;3.35;;
35276;SDS011;21401;50.878;8.050;2022-08-19T10:38:54;4.95;;;4.40;;
35276;SDS011;21401;50.878;8.050;2022-08-19T10:41:26;5.97;;;4.35;;
35276;SDS011;21401;50.878;8.050;2022-08-19T10:43:55;6.88;;;4.18;;
35276;SDS011;21401;50.878;8.050;2022-08-19T10:46:23;5.90;;;4.85;;
35276;SDS011;21401;50.878;8.050;2022-08-19T10:48:50;6.35;;;4.65;;
35276;SDS011;21401;50.878;8.050;2022-08-19T10:51:17;5.28;;;4.00;;
35276;SDS011;21401;50.878;8.050;2022-08-19T10:54:01;6.93;;;4.20;;
35276;SDS011;21401;50.878;8.050;2022-08-19T10:56:28;6.80;;;4.68;;
35276;SDS011;21401;50.878;8.050;2022-08-19T10:59:15;4.75;;;4.00;;
35276;SDS011;21401;50.878;8.050;2022-08-19T11:01:42;5.20;;;3.60;;
35276;SDS011;21401;50.878;8.050;2022-08-19T11:04:09;6.57;;;3.42;;
35276;SDS011;21401;50.878;8.050;2022-08-19T11:06:36;5.85;;;3.72;;
35276;SDS011;21401;50.878;8.050;2022-08-19T11:09:03;4.40;;;3.28;;
35276;SDS011;21401;50.878;8.050;2022-08-19T11:11:30;5.15;;;4.18;;
35276;SDS011;21401;50.878;8.050;2022-08-19T11:14:04;8.52;;;4.45;;
35276;SDS011;21401;50.878;8.050;2022-08-19T11:16:30;7.90;;;4.95;;
35276;SDS011;21401;50.878;8.050;2022-08-19T11:18:59;4.28;;;3.88;;
35276;SDS011;21401;50.878;8.050;2022-08-19T11:23:59;4.03;;;3.63;;
35276;SDS011;21401;50.878;8.050;2022-08-19T11:26:27;3.25;;;2.92;;
35276;SDS011;21401;50.878;8.050;2022-08-19T11:28:54;7.20;;;2.90;;
35276;SDS011;21401;50.878;8.050;2022-08-19T11:31:21;4.10;;;2.97;;
35276;SDS011;21401;50.878;8.050;2022-08-19T11:33:58;6.30;;;3.70;;
35276;SDS011;21401;50.878;8.050;2022-08-19T11:36:28;4.28;;;3.38;;
35276;SDS011;21401;50.878;8.050;2022-08-19T11:38:57;5.38;;;3.40;;
35276;SDS011;21401;50.878;8.050;2022-08-19T11:41:23;4.60;;;4.10;;
35276;SDS011;21401;50.878;8.050;2022-08-19T11:43:52;4.90;;;3.80;;
35276;SDS011;21401;50.878;8.050;2022-08-19T11:46:22;5.10;;;3.55;;
35276;SDS011;21401;50.878;8.050;2022-08-19T11:48:49;7.55;;;3.47;;
35276;SDS011;21401;50.878;8.050;2022-08-19T11:51:18;3.25;;;2.95;;
35276;SDS011;21401;50.878;8.050;2022-08-19T11:53:46;8.52;;;3.22;;
35276;SDS011;21401;50.878;8.050;2022-08-19T11:56:15;4.80;;;3.75;;
35276;SDS011;21401;50.878;8.050;2022-08-19T11:58:40;8.48;;;3.55;;
35276;SDS011;21401;50.878;8.050;2022-08-19T12:01:07;5.30;;;3.15;;
35276;SDS011;21401;50.878;8.050;2022-08-19T12:03:36;3.55;;;2.83;;
35276;SDS011;21401;50.878;8.050;2022-08-19T12:06:06;4.47;;;3.45;;
35276;SDS011;21401;50.878;8.050;2022-08-19T12:08:53;4.80;;;3.60;;
35276;SDS011;21401;50.878;8.050;2022-08-19T12:11:23;5.30;;;3.20;;
35276;SDS011;21401;50.878;8.050;2022-08-19T12:13:49;3.95;;;3.25;;
35276;SDS011;21401;50.878;8.050;2022-08-19T12:16:16;5.78;;;3.67;;
35276;SDS011;21401;50.878;8.050;2022-08-19T12:18:44;4.10;;;3.63;;
35276;SDS011;21401;50.878;8.050;2022-08-19T12:21:14;5.13;;;3.67;;
35276;SDS011;21401;50.878;8.050;2022-08-19T12:23:41;5.78;;;3.90;;
35276;SDS011;21401;50.878;8.050;2022-08-19T12:26:08;7.95;;;4.68;;
35276;SDS011;21401;50.878;8.050;2022-08-19T12:28:35;6.32;;;3.90;;
35276;SDS011;21401;50.878;8.050;2022-08-19T12:31:00;6.40;;;3.95;;
35276;SDS011;21401;50.878;8.050;2022-08-19T12:33:26;4.45;;;3.60;;
35276;SDS011;21401;50.878;8.050;2022-08-19T12:35:53;5.38;;;3.35;;
35276;SDS011;21401;50.878;8.050;2022-08-19T12:38:19;4.20;;;3.80;;
35276;SDS011;21401;50.878;8.050;2022-08-19T12:40:48;4.25;;;3.85;;
35276;SDS011;21401;50.878;8.050;2022-08-19T12:43:14;6.35;;;3.65;;
35276;SDS011;21401;50.878;8.050;2022-08-19T12:45:44;4.35;;;3.88;;
35276;SDS011;21401;50.878;8.050;2022-08-19T12:48:10;6.03;;;3.65;;
35276;SDS011;21401;50.878;8.050;2022-08-19T12:50:39;4.22;;;3.67;;
35276;SDS011;21401;50.878;8.050;2022-08-19T12:53:06;4.53;;;3.70;;
35276;SDS011;21401;50.878;8.050;2022-08-19T12:55:31;4.63;;;4.22;;
35276;SDS011;21401;50.878;8.050;2022-08-19T12:57:59;4.90;;;4.15;;
35276;SDS011;21401;50.878;8.050;2022-08-19T13:00:26;5.90;;;4.18;;
35276;SDS011;21401;50.878;8.050;2022-08-19T13:02:52;4.38;;;3.92;;
35276;SDS011;21401;50.878;8.050;2022-08-19T13:05:21;5.50;;;4.93;;
35276;SDS011;21401;50.878;8.050;2022-08-19T13:07:51;5.45;;;4.85;;
35276;SDS011;21401;50.878;8.050;2022-08-19T13:10:21;7.55;;;4.80;;
35276;SDS011;21401;50.878;8.050;2022-08-19T13:12:50;8.25;;;4.72;;
35276;SDS011;21401;50.878;8.050;2022-08-19T13:15:17;5.20;;;4.70;;
35276;SDS011;21401;50.878;8.050;2022-08-19T13:17:45;5.25;;;3.90;;
35276;SDS011;21401;50.878;8.050;2022-08-19T13:20:13;5.18;;;4.22;;
35276;SDS011;21401;50.878;8.050;2022-08-19T13:22:39;5.22;;;4.65;;
35276;SDS011;21401;50.878;8.050;2022-08-19T13:25:06;6.60;;;4.72;;
35276;SDS011;21401;50.878;8.050;2022-08-19T13:27:32;6.43;;;5.05;;
35276;SDS011;21401;50.878;8.050;2022-08-19T13:29:57;5.53;;;4.13;;
35276;SDS011;21401;50.878;8.050;2022-08-19T13:32:42;6.47;;;4.35;;
35276;SDS011;21401;50.878;8.050;2022-08-19T13:35:27;5.25;;;4.18;;
35276;SDS011;21401;50.878;8.050;2022-08-19T13:37:52;5.80;;;5.07;;
35276;SDS011;21401;50.878;8.050;2022-08-19T13:40:19;7.68;;;5.25;;
35276;SDS011;21401;50.878;8.050;2022-08-19T13:42:50;9.23;;;5.35;;
35276;SDS011;21401;50.878;8.050;2022-08-19T13:45:17;6.32;;;5.22;;
35276;SDS011;21401;50.878;8.050;2022-08-19T13:47:50;7.35;;;5.05;;
35276;SDS011;21401;50.878;8.050;2022-08-19T13:50:19;8.02;;;5.03;;
35276;SDS011;21401;50.878;8.050;2022-08-19T13:52:49;6.10;;;5.25;;
35276;SDS011;21401;50.878;8.050;2022-08-19T13:55:15;8.80;;;5.30;;
35276;SDS011;21401;50.878;8.050;2022-08-19T13:57:43;7.97;;;5.22;;
35276;SDS011;21401;50.878;8.050;2022-08-19T14:00:10;7.68;;;6.03;;
35276;SDS011;21401;50.878;8.050;2022-08-19T14:02:38;6.63;;;5.57;;
35276;SDS011;21401;50.878;8.050;2022-08-19T14:05:05;7.57;;;6.00;;
35276;SDS011;21401;50.878;8.050;2022-08-19T14:07:33;9.57;;;5.85;;
35276;SDS011;21401;50.878;8.050;2022-08-19T14:10:02;6.32;;;4.95;;
35276;SDS011;21401;50.878;8.050;2022-08-19T14:12:32;7.35;;;5.53;;
35276;SDS011;21401;50.878;8.050;2022-08-19T14:15:01;7.05;;;5.63;;
35276;SDS011;21401;50.878;8.050;2022-08-19T14:17:28;6.75;;;5.55;;
35276;SDS011;21401;50.878;8.050;2022-08-19T14:19:56;5.65;;;4.88;;
35276;SDS011;21401;50.878;8.050;2022-08-19T14:22:31;10.77;;;5.78;;
35276;SDS011;21401;50.878;8.050;2022-08-19T14:24:57;5.43;;;4.90;;
35276;SDS011;21401;50.878;8.050;2022-08-19T14:27:23;6.57;;;4.93;;
35276;SDS011;21401;50.878;8.050;2022-08-19T14:29:50;5.10;;;4.60;;
35276;SDS011;21401;50.878;8.050;2022-08-19T14:32:16;6.10;;;4.43;;
35276;SDS011;21401;50.878;8.050;2022-08-19T14:34:42;7.15;;;4.57;;
35276;SDS011;21401;50.878;8.050;2022-08-19T14:37:11;7.65;;;5.40;;
35276;SDS011;21401;50.878;8.050;2022-08-19T14:39:39;9.82;;;4.60;;
35276;SDS011;21401;50.878;8.050;2022-08-19T14:42:09;5.38;;;4.88;;
35276;SDS011;21401;50.878;8.050;2022-08-19T14:44:39;6.63;;;4.78;;
35276;SDS011;21401;50.878;8.050;2022-08-19T14:47:04;5.60;;;5.00;;
35276;SDS011;21401;50.878;8.050;2022-08-19T14:49:31;4.65;;;4.25;;
35276;SDS011;21401;50.878;8.050;2022-08-19T14:51:58;7.30;;;4.90;;
35276;SDS011;21401;50.878;8.050;2022-08-19T14:54:23;7.88;;;4.30;;
35276;SDS011;21401;50.878;8.050;2022-08-19T14:56:49;6.72;;;4.35;;
35276;SDS011;21401;50.878;8.050;2022-08-19T14:59:15;4.63;;;4.22;;
35276;SDS011;21401;50.878;8.050;2022-08-19T15:01:41;5.45;;;4.95;;
35276;SDS011;21401;50.878;8.050;2022-08-19T15:04:06;4.45;;;4.05;;
35276;SDS011;21401;50.878;8.050;2022-08-19T15:06:32;5.03;;;4.38;;
35276;SDS011;21401;50.878;8.050;2022-08-19T15:08:58;9.70;;;4.53;;